Time;durP1;ratioP1;P1;durP2;ratioP2;P2;SDS_P1;SDS_P2;PMS_P1;PMS_P2;Temp;Humidity;BMP_temperature;BMP_pressure;BME280_temperature;BME280_humidity;BME280_pressure;Samples;Min_cycle;Max_cycle;Signal;HPM_P1;HPM_P2
2021/12/04 00:02:05;;;;;;;120.50;40.25;;;5.10;99.90;;;;;;5057342;28;20449;-64
2021/12/04 00:04:35;;;;;;;118.07;42.15;;;;;;;;;;5057332;28;20482;-64
2021/12/04 00:07:02;;;;;;;135.50;42.75;;;;;;;;;;5060276;28;20037;-63
2021/12/04 00:09:29;;;;;;;123.13;42.30;;;5.20;99.90;;;;;;5046711;28;20573;-64
2021/12/04 00:11:58;;;;;;;125.78;40.45;;;;;;;;;;5069732;28;20461;-64
2021/12/04 00:14:24;;;;;;;118.68;43.05;;;;;;;;;;5066122;28;20036;-63
2021/12/04 00:19:35;;;;;;;139.90;43.20;;;;;;;;;;4543079;22;20049;-63
2021/12/04 00:22:01;;;;;;;142.52;44.03;;;;;;;;;;5061980;28;20037;-63
2021/12/04 00:24:28;;;;;;;130.80;43.50;;;;;;;;;;5057092;28;20442;-62
2021/12/04 00:26:54;;;;;;;140.13;44.03;;;5.30;99.90;;;;;;5051861;28;20043;-62
2021/12/04 00:29:21;;;;;;;147.07;43.45;;;5.20;99.90;;;;;;5020738;28;20044;-62
2021/12/04 00:31:49;;;;;;;152.40;46.35;;;;;;;;;;5042592;28;20570;-62
2021/12/04 00:34:17;;;;;;;139.02;45.55;;;5.50;99.90;;;;;;5028409;28;20500;-61
2021/12/04 00:50:14;;;;;;;172.50;47.97;;;;;;;;;;5037226;28;20045;-62
2021/12/04 00:52:40;;;;;;;142.05;42.83;;;;;;;;;;5037832;28;20041;-62
2021/12/04 00:55:07;;;;;;;164.15;50.38;;;;;;;;;;5040691;28;20106;-62
2021/12/04 00:57:33;;;;;;;184.23;50.22;;;;;;;;;;5046983;28;20163;-62
2021/12/04 00:59:59;;;;;;;168.85;51.60;;;;;;;;;;5044231;28;20592;-63
2021/12/04 01:02:25;;;;;;;180.02;52.20;;;;;;;;;;5049473;28;20040;-62
2021/12/04 01:04:51;;;;;;;158.60;47.60;;;5.10;99.90;;;;;;5028226;28;20118;-62
2021/12/04 01:07:17;;;;;;;166.48;50.60;;;6.50;99.90;;;;;;5047902;28;20033;-62
2021/12/04 01:09:44;;;;;;;150.45;46.88;;;;;;;;;;5058938;28;20397;-62
2021/12/04 01:12:10;;;;;;;163.95;50.03;;;;;;;;;;5038028;28;20053;-62
2021/12/04 01:14:37;;;;;;;174.23;49.53;;;5.40;99.90;;;;;;5049742;28;20047;-63
2021/12/04 01:17:03;;;;;;;165.55;47.40;;;5.70;99.90;;;;;;5045978;28;20040;-61
2021/12/04 01:19:29;;;;;;;169.32;52.60;;;;;;;;;;5049499;28;20037;-62
2021/12/04 01:21:55;;;;;;;159.80;49.33;;;;;;;;;;5050661;28;20442;-62
2021/12/04 01:24:21;;;;;;;166.77;50.50;;;;;;;;;;5037890;28;20040;-62
2021/12/04 01:26:48;;;;;;;180.73;51.95;;;;;;;;;;5052913;28;20029;-62
2021/12/04 01:29:15;;;;;;;163.13;52.40;;;;;;;;;;5042211;28;20065;-62
2021/12/04 01:31:41;;;;;;;171.45;50.25;;;;;;;;;;5046113;28;20044;-62
2021/12/04 01:34:07;;;;;;;165.57;48.63;;;;;;;;;;5048701;28;20060;-62
2021/12/04 01:36:33;;;;;;;156.05;47.67;;;5.00;99.90;;;;;;5036535;28;20495;-62
2021/12/04 01:38:59;;;;;;;194.00;50.78;;;;;;;;;;5045276;28;20072;-63
2021/12/04 01:41:24;;;;;;;178.98;48.17;;;5.20;99.90;;;;;;5024224;28;20080;-63
2021/12/04 01:43:50;;;;;;;186.60;53.13;;;;;;;;;;5042438;28;20041;-61
2021/12/04 01:46:16;;;;;;;201.23;50.53;;;;;;;;;;5051758;28;20268;-62
2021/12/04 01:48:42;;;;;;;150.32;45.63;;;;;;;;;;5038561;28;20457;-62
2021/12/04 01:51:09;;;;;;;158.48;46.17;;;;;;;;;;5054802;28;20041;-62
2021/12/04 01:53:35;;;;;;;173.63;46.47;;;;;;;;;;5031559;28;20040;-63
2021/12/04 01:56:01;;;;;;;164.60;47.42;;;;;;;;;;5044740;28;20415;-63
2021/12/04 01:58:28;;;;;;;174.48;49.45;;;;;;;;;;5048637;28;20537;-63
2021/12/04 02:00:54;;;;;;;160.02;46.13;;;;;;;;;;5039701;28;20033;-63
2021/12/04 02:03:21;;;;;;;196.82;50.05;;;;;;;;;;5033741;28;20051;-62
2021/12/04 02:05:48;;;;;;;185.30;49.83;;;;;;;;;;5048254;28;20037;-63
2021/12/04 02:08:16;;;;;;;170.43;46.30;;;;;;;;;;5045262;28;20113;-62
2021/12/04 02:10:42;;;;;;;233.43;55.78;;;;;;;;;;5051615;28;20039;-62
2021/12/04 02:13:08;;;;;;;219.02;54.40;;;;;;;;;;5048655;28;20044;-63
2021/12/04 02:15:34;;;;;;;176.75;48.08;;;;;;;;;;5043944;28;20043;-63
2021/12/04 02:18:02;;;;;;;192.50;50.45;;;;;;;;;;5046859;28;20124;-63
2021/12/04 02:20:29;;;;;;;165.85;49.28;;;;;;;;;;5039869;28;20057;-62
2021/12/04 02:22:56;;;;;;;231.07;55.63;;;5.40;99.90;;;;;;5040965;28;20033;-62
2021/12/04 02:25:22;;;;;;;174.05;49.72;;;5.20;99.90;;;;;;5042512;28;20042;-63
2021/12/04 02:27:48;;;;;;;228.88;57.25;;;;;;;;;;5013102;28;20052;-62
2021/12/04 02:30:16;;;;;;;220.60;56.88;;;;;;;;;;5040725;28;20407;-62
2021/12/04 02:32:42;;;;;;;221.27;55.15;;;;;;;;;;5047669;28;20037;-62
2021/12/04 02:35:10;;;;;;;261.75;61.17;;;;;;;;;;5042017;28;20407;-63
2021/12/04 02:37:37;;;;;;;248.43;61.42;;;5.00;99.90;;;;;;5028981;28;20056;-63
2021/12/04 02:40:04;;;;;;;168.40;49.60;;;;;;;;;;5050211;28;20093;-63
2021/12/04 02:42:31;;;;;;;184.68;50.55;;;;;;;;;;5011773;28;20441;-63
2021/12/04 02:44:58;;;;;;;262.98;59.70;;;;;;;;;;5050270;28;20427;-62
2021/12/04 02:47:24;;;;;;;158.15;47.63;;;;;;;;;;5048166;28;20044;-62
2021/12/04 02:49:50;;;;;;;164.05;49.65;;;;;;;;;;5042250;28;20364;-63
2021/12/04 02:52:17;;;;;;;245.77;60.05;;;;;;;;;;5047652;28;20056;-63
2021/12/04 02:54:44;;;;;;;250.75;61.92;;;;;;;;;;5043521;28;20043;-63
2021/12/04 02:57:12;;;;;;;230.77;58.75;;;;;;;;;;5039906;28;20415;-62
2021/12/04 02:59:39;;;;;;;253.20;61.28;;;4.90;99.90;;;;;;5026551;28;20091;-62
2021/12/04 03:02:07;;;;;;;211.73;55.05;;;4.60;99.90;;;;;;5054423;28;20055;-63
2021/12/04 03:04:33;;;;;;;199.77;53.38;;;;;;;;;;5046455;28;20044;-63
2021/12/04 03:06:59;;;;;;;219.77;59.00;;;;;;;;;;5037813;28;20056;-63
2021/12/04 03:09:25;;;;;;;270.55;62.53;;;4.90;99.90;;;;;;5052018;28;20120;-63
2021/12/04 03:11:51;;;;;;;190.15;51.10;;;;;;;;;;5042778;28;20125;-63
2021/12/04 03:14:17;;;;;;;201.35;53.50;;;4.90;99.90;;;;;;5053906;28;20080;-63
2021/12/04 03:16:43;;;;;;;207.30;53.35;;;5.00;99.90;;;;;;5050062;28;20182;-63
2021/12/04 03:19:09;;;;;;;237.18;59.25;;;5.00;99.90;;;;;;5045446;28;20045;-63
2021/12/04 03:21:37;;;;;;;280.85;64.95;;;5.40;99.90;;;;;;5056883;28;20040;-63
2021/12/04 03:24:06;;;;;;;226.98;56.83;;;5.50;99.90;;;;;;5028053;28;20037;-63
2021/12/04 03:26:33;;;;;;;161.95;45.78;;;;;;;;;;5023502;28;20124;-63
2021/12/04 03:29:03;;;;;;;195.00;53.65;;;;;;;;;;5055029;28;20060;-63
2021/12/04 03:32:08;;;;;;;252.13;59.13;;;4.90;99.90;;;;;;5023617;28;20048;-63
2021/12/04 03:40:09;;;;;;;165.32;47.33;;;4.50;99.90;;;;;;5032838;28;20045;-62
2021/12/04 03:42:36;;;;;;;190.02;52.35;;;5.00;99.90;;;;;;5028678;28;20176;-62
2021/12/04 03:45:03;;;;;;;215.18;53.67;;;;;;;;;;5056751;28;20291;-63
2021/12/04 03:47:30;;;;;;;197.05;50.55;;;;;;;;;;5035766;28;20075;-63
2021/12/04 03:49:56;;;;;;;171.82;46.70;;;4.90;99.90;;;;;;5042816;28;20048;-63
2021/12/04 03:52:22;;;;;;;204.93;52.42;;;5.00;99.90;;;;;;5059196;28;20049;-63
2021/12/04 03:54:48;;;;;;;177.25;48.92;;;;;;;;;;5047876;28;20521;-62
2021/12/04 03:57:14;;;;;;;169.73;46.17;;;4.90;99.90;;;;;;5052196;28;20076;-63
2021/12/04 03:59:41;;;;;;;203.88;53.67;;;;;;;;;;5036945;28;20101;-62
2021/12/04 04:02:09;;;;;;;189.82;50.50;;;4.50;99.90;;;;;;5051127;28;20040;-63
2021/12/04 04:04:36;;;;;;;208.30;52.10;;;;;;;;;;5051585;28;20377;-63
2021/12/04 04:07:02;;;;;;;193.25;49.53;;;;;;;;;;5040332;28;20064;-63
2021/12/04 04:09:28;;;;;;;200.48;51.45;;;;;;;;;;5030899;28;20044;-63
2021/12/04 04:11:57;;;;;;;197.15;50.80;;;5.00;99.90;;;;;;5048814;28;20075;-63
2021/12/04 04:14:24;;;;;;;135.40;40.72;;;;;;;;;;5046691;28;20037;-62
2021/12/04 04:16:52;;;;;;;137.73;40.63;;;;;;;;;;5058248;28;20415;-63
2021/12/04 04:19:18;;;;;;;173.32;49.55;;;;;;;;;;5049077;28;20633;-63
2021/12/04 04:21:44;;;;;;;208.98;52.72;;;5.00;99.90;;;;;;5053986;28;20045;-63
2021/12/04 04:24:11;;;;;;;190.35;51.35;;;;;;;;;;5053414;28;20187;-63
2021/12/04 04:26:37;;;;;;;178.15;47.10;;;;;;;;;;5022608;28;20484;-63
2021/12/04 04:29:05;;;;;;;186.90;45.95;;;4.40;99.90;;;;;;5056257;28;20492;-63
2021/12/04 04:31:32;;;;;;;143.75;41.78;;;;;;;;;;5049541;28;20129;-63
2021/12/04 04:34:02;;;;;;;182.30;45.47;;;;;;;;;;5049411;28;20041;-63
2021/12/04 04:58:14;;;;;;;155.20;42.77;;;;;;;;;;5059044;28;20125;-63
2021/12/04 05:01:14;;;;;;;170.40;42.92;;;;;;;;;;5050025;28;20315;-62
2021/12/04 05:14:32;;;;;;;194.90;45.80;;;;;;;;;;5047475;28;20059;-63
2021/12/04 05:17:06;;;;;;;164.75;42.03;;;;;;;;;;5043626;28;20042;-63
2021/12/04 05:22:32;;;;;;;188.60;42.50;;;;;;;;;;4996489;28;20076;-62
2021/12/04 05:24:57;;;;;;;174.38;42.72;;;5.00;99.90;;;;;;5045122;28;20069;-63
2021/12/04 05:27:24;;;;;;;167.93;45.42;;;;;;;;;;5032316;28;20083;-63
2021/12/04 05:29:50;;;;;;;170.85;40.92;;;;;;;;;;5029845;28;20098;-62
2021/12/04 05:32:16;;;;;;;219.90;49.78;;;5.00;99.90;;;;;;5043295;28;20447;-63
2021/12/04 05:34:42;;;;;;;200.75;46.28;;;;;;;;;;5049733;28;20040;-63
2021/12/04 05:37:08;;;;;;;218.25;51.63;;;;;;;;;;5045297;28;20120;-63
2021/12/04 05:39:35;;;;;;;160.45;40.03;;;;;;;;;;5049744;28;20484;-63
2021/12/04 05:42:01;;;;;;;189.90;45.40;;;;;;;;;;5045988;28;20033;-63
2021/12/04 05:44:29;;;;;;;136.90;37.85;;;;;;;;;;5045551;28;20059;-63
2021/12/04 05:47:02;;;;;;;178.20;45.72;;;5.00;99.90;;;;;;5056802;28;20044;-63
2021/12/04 05:49:54;;;;;;;188.35;44.78;;;;;;;;;;5047274;28;20111;-63
2021/12/04 05:52:39;;;;;;;191.82;43.88;;;5.10;99.90;;;;;;5065579;28;20679;-63
2021/12/04 05:55:16;;;;;;;190.88;42.67;;;;;;;;;;5037685;28;20263;-61
2021/12/04 05:57:42;;;;;;;189.27;43.90;;;5.00;99.90;;;;;;5035559;28;20107;-63
2021/12/04 06:00:12;;;;;;;173.75;41.20;;;;;;;;;;5045430;28;20029;-62
2021/12/04 06:02:38;;;;;;;187.98;43.08;;;;;;;;;;5048110;28;20510;-63
2021/12/04 06:05:04;;;;;;;216.30;46.25;;;;;;;;;;5042189;28;20040;-63
2021/12/04 06:07:29;;;;;;;197.90;43.83;;;5.10;99.90;;;;;;5047214;28;20033;-63
2021/12/04 06:09:56;;;;;;;201.77;46.00;;;;;;;;;;5053960;28;20037;-63
2021/12/04 06:12:21;;;;;;;186.80;44.00;;;;;;;;;;5043334;28;20090;-62
2021/12/04 06:14:51;;;;;;;204.48;45.67;;;;;;;;;;5044955;28;20127;-63
2021/12/04 06:17:20;;;;;;;193.18;43.63;;;5.10;99.90;;;;;;5055117;28;20059;-62
2021/12/04 06:22:38;;;;;;;195.60;45.25;;;;;;;;;;5062164;28;20511;-61
2021/12/04 06:25:11;;;;;;;153.75;41.17;;;;;;;;;;5057288;28;20389;-62
2021/12/04 06:27:38;;;;;;;160.38;41.17;;;5.50;99.90;;;;;;5044589;28;20190;-59
2021/12/04 06:30:05;;;;;;;253.77;50.00;;;;;;;;;;5042884;28;20040;-61
2021/12/04 06:32:32;;;;;;;176.77;41.40;;;;;;;;;;5034766;28;20508;-59
2021/12/04 06:34:57;;;;;;;208.80;45.00;;;5.00;99.90;;;;;;5048116;28;20037;-61
2021/12/04 06:37:23;;;;;;;217.32;45.50;;;;;;;;;;5045146;28;20040;-61
2021/12/04 06:39:49;;;;;;;171.18;40.40;;;;;;;;;;5022630;28;20052;-59
2021/12/04 06:42:17;;;;;;;150.40;38.63;;;;;;;;;;5034061;28;20170;-61
2021/12/04 06:44:43;;;;;;;163.25;40.47;;;;;;;;;;5027782;28;20504;-63
2021/12/04 06:47:09;;;;;;;154.13;37.90;;;;;;;;;;5046948;28;20073;-60
2021/12/04 06:49:39;;;;;;;201.10;43.88;;;;;;;;;;5030579;28;20102;-61
2021/12/04 06:52:08;;;;;;;157.60;37.95;;;;;;;;;;5033014;28;20038;-61
2021/12/04 06:54:40;;;;;;;199.70;43.08;;;;;;;;;;5035666;28;20049;-62
2021/12/04 06:57:10;;;;;;;212.15;44.00;;;4.90;99.90;;;;;;5039487;28;20057;-61
2021/12/04 06:59:38;;;;;;;243.30;48.50;;;;;;;;;;5035505;28;20454;-63
2021/12/04 07:02:04;;;;;;;214.95;46.53;;;;;;;;;;5031743;28;20041;-61
2021/12/04 07:04:39;;;;;;;180.68;40.05;;;;;;;;;;5041467;28;20480;-61
2021/12/04 07:07:06;;;;;;;145.02;36.92;;;;;;;;;;5045152;28;20045;-61
2021/12/04 07:09:32;;;;;;;179.15;40.63;;;;;;;;;;5033081;28;20167;-60
2021/12/04 07:11:59;;;;;;;182.70;43.60;;;;;;;;;;5037648;28;20033;-62
2021/12/04 07:14:26;;;;;;;180.77;42.45;;;;;;;;;;5033560;28;20138;-61
2021/12/04 07:16:55;;;;;;;151.80;37.28;;;5.40;99.90;;;;;;5045917;28;20546;-61
2021/12/04 07:19:21;;;;;;;288.48;53.53;;;5.00;99.90;;;;;;5017740;28;20041;-61
2021/12/04 07:21:47;;;;;;;189.30;43.63;;;;;;;;;;5037403;28;20040;-61
2021/12/04 07:24:14;;;;;;;139.73;35.88;;;;;;;;;;5032717;28;20049;-63
2021/12/04 07:26:40;;;;;;;204.18;45.63;;;;;;;;;;5030645;28;20132;-61
2021/12/04 07:29:07;;;;;;;150.25;38.70;;;;;;;;;;5033141;28;20057;-62
2021/12/04 07:31:33;;;;;;;170.57;40.33;;;;;;;;;;5024178;28;20041;-65
2021/12/04 07:34:00;;;;;;;189.65;40.90;;;;;;;;;;5038968;28;20068;-62
2021/12/04 07:36:26;;;;;;;183.27;41.15;;;;;;;;;;5017875;28;20037;-61
2021/12/04 07:38:52;;;;;;;213.38;43.03;;;;;;;;;;5032156;28;20385;-60
2021/12/04 07:41:18;;;;;;;144.40;38.10;;;;;;;;;;5029269;28;20041;-61
2021/12/04 07:43:44;;;;;;;161.52;39.60;;;;;;;;;;5034421;28;20041;-61
2021/12/04 07:46:10;;;;;;;155.48;38.78;;;;;;;;;;5032388;28;20040;-61
2021/12/04 07:48:36;;;;;;;165.05;41.05;;;;;;;;;;5011909;28;20077;-61
2021/12/04 07:51:04;;;;;;;144.27;35.70;;;;;;;;;;5029324;28;20060;-62
2021/12/04 07:53:30;;;;;;;141.00;35.03;;;5.20;99.90;;;;;;5032769;28;20100;-62
2021/12/04 07:55:56;;;;;;;178.48;42.05;;;;;;;;;;5034650;28;20037;-64
2021/12/04 07:58:22;;;;;;;166.13;40.00;;;;;;;;;;5047409;28;20112;-64
2021/12/04 08:00:48;;;;;;;169.93;41.03;;;;;;;;;;5050421;28;20646;-61
2021/12/04 08:03:14;;;;;;;143.98;37.58;;;;;;;;;;5031185;28;20086;-61
2021/12/04 08:05:40;;;;;;;219.68;45.72;;;;;;;;;;5032403;28;20037;-61
2021/12/04 08:08:06;;;;;;;190.88;41.28;;;;;;;;;;5036307;28;20041;-59
2021/12/04 08:10:33;;;;;;;147.32;37.70;;;5.00;99.90;;;;;;5039315;28;20037;-61
2021/12/04 08:13:01;;;;;;;163.43;40.17;;;;;;;;;;5024239;28;20120;-62
2021/12/04 08:15:27;;;;;;;108.90;31.40;;;;;;;;;;5029843;28;20052;-63
2021/12/04 08:17:54;;;;;;;133.40;36.03;;;;;;;;;;5032469;28;20128;-63
2021/12/04 08:20:20;;;;;;;135.50;35.38;;;;;;;;;;5032091;28;21523;-63
2021/12/04 08:22:46;;;;;;;123.70;34.78;;;;;;;;;;5034451;28;20061;-62
2021/12/04 08:25:14;;;;;;;121.22;36.08;;;;;;;;;;5031565;28;20048;-61
2021/12/04 08:27:40;;;;;;;111.03;34.58;;;;;;;;;;5039498;28;20118;-64
2021/12/04 08:30:09;;;;;;;140.32;35.53;;;5.60;99.90;;;;;;5040260;28;20037;-63
2021/12/04 08:32:35;;;;;;;131.32;33.33;;;;;;;;;;5034245;28;20034;-61
2021/12/04 08:35:02;;;;;;;141.57;35.63;;;4.90;99.90;;;;;;5034680;28;20468;-61
2021/12/04 08:37:28;;;;;;;152.50;37.15;;;;;;;;;;5035570;28;20084;-61
2021/12/04 08:39:54;;;;;;;122.28;32.45;;;;;;;;;;5036240;28;20408;-61
2021/12/04 08:42:20;;;;;;;154.23;36.47;;;;;;;;;;5037173;28;20043;-62
2021/12/04 08:44:47;;;;;;;124.30;34.90;;;;;;;;;;5032671;28;20128;-59
2021/12/04 08:47:13;;;;;;;138.48;41.45;;;;;;;;;;5036464;28;20037;-63
2021/12/04 08:49:39;;;;;;;119.15;34.75;;;;;;;;;;5039952;28;20079;-61
2021/12/04 08:52:07;;;;;;;196.38;88.35;;;;;;;;;;5029344;28;20033;-64
2021/12/04 08:54:33;;;;;;;120.85;35.05;;;;;;;;;;5025692;28;20479;-62
2021/12/04 08:56:59;;;;;;;114.90;40.80;;;;;;;;;;5028707;28;20072;-59
2021/12/04 08:59:25;;;;;;;128.52;38.17;;;5.40;99.90;;;;;;5027583;28;20029;-61
2021/12/04 09:01:51;;;;;;;103.35;31.75;;;;;;;;;;5031142;28;20044;-62
2021/12/04 09:04:23;;;;;;;100.28;34.30;;;5.50;99.90;;;;;;5029612;28;21925;-63
2021/12/04 09:06:50;;;;;;;122.68;36.13;;;;;;;;;;5031203;28;20175;-61
2021/12/04 09:09:17;;;;;;;132.43;49.17;;;;;;;;;;5037036;28;20033;-60
2021/12/04 09:11:53;;;;;;;124.28;37.10;;;;;;;;;;5031003;28;20431;-61
2021/12/04 09:14:21;;;;;;;146.15;41.88;;;;;;;;;;5035070;28;20065;-62
2021/12/04 09:16:49;;;;;;;127.05;37.22;;;;;;;;;;5016703;28;20041;-61
2021/12/04 09:19:15;;;;;;;106.93;36.35;;;;;;;;;;5035584;28;20392;-63
2021/12/04 09:21:41;;;;;;;93.63;32.92;;;;;;;;;;5034342;28;20041;-62
2021/12/04 09:24:12;;;;;;;137.85;49.40;;;;;;;;;;5039848;28;20503;-63
2021/12/04 10:01:43;;;;;;;83.82;27.05;;;;;;;;;;5034014;28;20404;-61
2021/12/04 10:20:10;;;;;;;80.65;28.20;;;;;;;;;;5030041;28;20102;-60
2021/12/04 10:22:59;;;;;;;95.03;30.67;;;;;;;;;;5026976;28;20661;-61
2021/12/04 10:33:48;;;;;;;95.05;28.73;;;;;;;;;;5028943;28;20049;-61
2021/12/04 10:36:26;;;;;;;82.95;26.33;;;5.50;99.90;;;;;;5029743;28;20037;-60
2021/12/04 10:38:52;;;;;;;81.18;27.10;;;;;;;;;;5032522;28;20106;-62
2021/12/04 10:41:27;;;;;;;81.25;24.98;;;;;;;;;;5028442;28;20751;-60
2021/12/04 10:43:53;;;;;;;;;;;;;;;;;;5034175;28;20484;-62
2021/12/04 10:46:21;;;;;;;93.30;29.17;;;;;;;;;;5034794;28;20004;-62
2021/12/04 10:48:53;;;;;;;128.07;64.72;;;5.80;99.90;;;;;;5028557;28;20053;-61
2021/12/04 10:53:55;;;;;;;83.28;33.10;;;5.50;99.90;;;;;;5027775;28;20569;-60
2021/12/04 10:59:13;;;;;;;74.45;26.92;;;;;;;;;;5038139;28;20049;-61
2021/12/04 11:02:45;;;;;;;89.60;27.60;;;;;;;;;;5032161;28;20049;-61
2021/12/04 11:37:20;;;;;;;61.22;24.33;;;;;;;;;;5037009;28;20085;-58
2021/12/04 11:40:07;;;;;;;62.05;24.05;;;;;;;;;;5030531;28;20076;-58
2021/12/04 11:45:31;;;;;;;71.63;24.77;;;;;;;;;;5029610;28;20049;-60
2021/12/04 11:47:58;;;;;;;63.63;25.13;;;;;;;;;;4994786;28;20064;-60
2021/12/04 11:50:24;;;;;;;72.18;27.35;;;;;;;;;;5033069;28;20029;-60
2021/12/04 11:52:53;;;;;;;84.88;28.52;;;;;;;;;;5029145;28;20037;-58
2021/12/04 11:55:21;;;;;;;67.90;26.83;;;;;;;;;;5027836;28;20064;-60
2021/12/04 11:57:48;;;;;;;55.75;23.65;;;;;;;;;;5024600;28;20049;-59
2021/12/04 12:00:30;;;;;;;78.63;27.52;;;5.50;99.90;;;;;;5035821;28;20547;-58
2021/12/04 12:03:10;;;;;;;64.53;23.73;;;;;;;;;;5038597;28;20096;-60
2021/12/04 12:05:47;;;;;;;67.78;26.27;;;;;;;;;;5030899;28;20037;-60
2021/12/04 12:08:34;;;;;;;81.18;28.55;;;5.60;99.90;;;;;;5025410;28;20500;-58
2021/12/04 12:11:09;;;;;;;78.22;27.42;;;5.30;99.90;;;;;;5032110;28;20060;-60
2021/12/04 12:13:37;;;;;;;80.28;28.90;;;;;;;;;;5031524;28;20112;-57
2021/12/04 12:16:11;;;;;;;80.90;27.60;;;;;;;;;;5013903;28;20550;-59
2021/12/04 12:18:57;;;;;;;85.22;27.77;;;;;;;;;;5055997;22;20063;-64
2021/12/04 12:21:29;;;;;;;80.95;27.63;;;;;;;;;;5027441;28;20111;-64
2021/12/04 12:24:32;;;;;;;69.35;23.17;;;;;;;;;;5018408;28;20044;-64
2021/12/04 12:38:16;;;;;;;75.40;25.80;;;;;;;;;;5012964;28;20042;-64
2021/12/04 12:40:43;;;;;;;77.70;26.75;;;;;;;;;;5011894;28;20046;-64
2021/12/04 12:43:14;;;;;;;79.22;26.85;;;;;;;;;;5012605;28;20095;-64
2021/12/04 12:45:39;;;;;;;71.88;23.15;;;5.50;99.90;;;;;;5011947;28;20053;-64
2021/12/04 12:48:11;;;;;;;57.60;21.80;;;;;;;;;;5006494;28;20034;-63
2021/12/04 12:50:39;;;;;;;49.88;20.55;;;;;;;;;;5010308;28;20038;-64
2021/12/04 12:53:21;;;;;;;64.45;24.35;;;5.70;99.90;;;;;;5010740;28;20034;-64
2021/12/04 12:55:53;;;;;;;48.22;21.17;;;5.60;99.90;;;;;;5006401;28;20121;-64
2021/12/04 12:58:22;;;;;;;51.65;22.45;;;;;;;;;;5010378;28;20101;-64
2021/12/04 13:12:08;;;;;;;44.67;19.77;;;5.90;99.90;;;;;;5009197;28;20042;-64
2021/12/04 13:14:37;;;;;;;50.67;22.02;;;;;;;;;;5004083;28;20030;-65
2021/12/04 13:17:07;;;;;;;51.25;22.13;;;;;;;;;;5009388;28;20307;-63
2021/12/04 13:19:36;;;;;;;58.67;26.17;;;;;;;;;;5018582;28;20034;-64
2021/12/04 13:22:04;;;;;;;63.28;39.90;;;;;;;;;;5019939;28;20526;-64
2021/12/04 13:24:36;;;;;;;53.83;21.13;;;5.30;99.90;;;;;;5018668;28;20045;-64
2021/12/04 13:30:02;;;;;;;47.60;19.48;;;;;;;;;;5015149;28;20069;-64
2021/12/04 13:32:34;;;;;;;48.58;20.23;;;5.50;99.90;;;;;;5011549;28;20085;-64
2021/12/04 13:35:15;;;;;;;64.68;24.25;;;6.40;99.90;;;;;;5012757;28;20129;-64
2021/12/04 13:37:41;;;;;;;60.58;23.42;;;;;;;;;;5001971;28;20582;-64
2021/12/04 13:40:11;;;;;;;53.08;22.25;;;6.00;99.90;;;;;;5015224;28;20033;-64
2021/12/04 13:42:38;;;;;;;51.65;21.13;;;5.30;99.90;;;;;;5012037;28;20034;-64
2021/12/04 13:45:08;;;;;;;63.58;24.10;;;5.50;99.90;;;;;;4991641;28;20240;-64
2021/12/04 13:47:34;;;;;;;50.47;23.20;;;;;;;;;;5013476;28;20060;-64
2021/12/04 13:50:01;;;;;;;56.28;26.30;;;;;;;;;;5018096;28;20048;-64
2021/12/04 13:52:32;;;;;;;65.78;23.95;;;;;;;;;;5013365;28;20045;-64
2021/12/04 13:55:03;;;;;;;49.95;22.05;;;;;;;;;;5018821;28;20065;-64
2021/12/04 13:57:33;;;;;;;62.05;24.92;;;;;;;;;;5020907;28;20033;-64
2021/12/04 14:00:04;;;;;;;56.17;27.52;;;;;;;;;;5012668;28;20049;-64
2021/12/04 14:02:31;;;;;;;52.50;21.35;;;;;;;;;;5019112;28;20042;-64
2021/12/04 14:05:09;;;;;;;55.38;22.00;;;;;;;;;;5015774;28;20088;-64
2021/12/04 14:07:35;;;;;;;329.40;222.10;;;;;;;;;;5014441;28;20065;-64
2021/12/04 14:10:11;;;;;;;68.68;34.75;;;;;;;;;;5010049;28;20041;-64
2021/12/04 14:12:40;;;;;;;71.65;36.97;;;;;;;;;;5009194;28;20033;-64
2021/12/04 14:15:08;;;;;;;48.83;24.45;;;;;;;;;;5008859;28;20048;-64
2021/12/04 14:17:33;;;;;;;62.90;28.20;;;5.60;99.90;;;;;;5009320;28;20038;-63
2021/12/04 14:19:59;;;;;;;47.80;21.02;;;;;;;;;;5010900;28;20501;-63
2021/12/04 14:22:25;;;;;;;54.53;22.10;;;;;;;;;;4993559;28;20037;-63
2021/12/04 14:24:56;;;;;;;45.25;21.08;;;5.70;99.90;;;;;;5015369;28;20550;-63
2021/12/04 14:27:26;;;;;;;50.97;22.05;;;5.50;99.90;;;;;;5019901;28;20401;-63
2021/12/04 14:29:55;;;;;;;52.17;21.98;;;5.60;99.90;;;;;;5019055;28;20073;-63
2021/12/04 14:32:26;;;;;;;50.55;20.90;;;5.80;99.90;;;;;;5012005;28;20128;-63
2021/12/04 14:34:57;;;;;;;43.00;19.48;;;;;;;;;;5010165;28;20050;-63
2021/12/04 14:37:23;;;;;;;98.57;58.05;;;;;;;;;;5010368;28;20033;-63
2021/12/04 14:39:50;;;;;;;50.70;21.60;;;6.00;99.90;;;;;;5010983;28;20058;-63
2021/12/04 14:42:19;;;;;;;53.20;22.10;;;5.50;99.90;;;;;;5004695;28;20045;-63
2021/12/04 14:44:58;;;;;;;59.42;22.63;;;5.50;99.90;;;;;;4999233;28;20056;-64
2021/12/04 14:47:29;;;;;;;60.30;22.25;;;;;;;;;;5010028;28;20041;-63
2021/12/04 14:49:59;;;;;;;62.50;23.05;;;;;;;;;;4995697;28;20046;-63
2021/12/04 14:52:26;;;;;;;50.47;21.48;;;;;;;;;;5009119;28;20042;-64
2021/12/04 14:54:52;;;;;;;65.40;22.73;;;;;;;;;;5009814;28;20038;-64
2021/12/04 14:57:20;;;;;;;75.18;27.42;;;;;;;;;;5009272;28;20053;-64
2021/12/04 14:59:46;;;;;;;73.85;26.73;;;;;;;;;;5010373;28;20527;-65
2021/12/04 15:02:14;;;;;;;67.80;23.40;;;;;;;;;;5018539;28;20068;-65
2021/12/04 15:04:41;;;;;;;69.70;25.30;;;;;;;;;;5023433;28;20052;-65
2021/12/04 15:07:16;;;;;;;61.33;24.42;;;;;;;;;;5010106;28;20125;-64
2021/12/04 15:09:42;;;;;;;85.88;27.00;;;;;;;;;;5010507;28;20046;-65
2021/12/04 15:12:11;;;;;;;77.43;26.58;;;;;;;;;;5010575;28;20596;-65
2021/12/04 15:14:37;;;;;;;95.88;30.00;;;;;;;;;;5001225;28;20065;-64
2021/12/04 15:17:12;;;;;;;88.00;28.65;;;;;;;;;;5010177;28;20492;-65
2021/12/04 15:19:40;;;;;;;91.00;31.80;;;5.40;99.90;;;;;;5008677;28;20385;-65
2021/12/04 15:22:10;;;;;;;87.78;31.70;;;;;;;;;;5006420;28;20509;-65
2021/12/04 15:24:39;;;;;;;100.72;31.70;;;5.30;99.90;;;;;;5009587;28;20066;-65
2021/12/04 15:27:06;;;;;;;74.82;28.85;;;;;;;;;;5008183;28;20109;-65
2021/12/04 15:29:33;;;;;;;104.53;31.40;;;;;;;;;;5001712;28;20041;-64
2021/12/04 15:32:01;;;;;;;85.60;30.33;;;;;;;;;;5008970;28;20125;-65
2021/12/04 15:34:44;;;;;;;82.20;28.42;;;;;;;;;;5008353;28;20050;-64
2021/12/04 15:37:10;;;;;;;103.35;33.05;;;5.40;99.90;;;;;;5013735;28;20054;-65
2021/12/04 15:39:40;;;;;;;87.65;29.55;;;;;;;;;;5022801;28;20030;-64
2021/12/04 15:42:30;;;;;;;79.45;28.15;;;;;;;;;;5020565;28;20119;-65
2021/12/04 15:48:02;;;;;;;88.10;29.10;;;5.40;99.90;;;;;;4998119;28;20045;-65
2021/12/04 15:53:23;;;;;;;101.47;34.38;;;;;;;;;;5018440;28;20509;-64
2021/12/04 15:55:52;;;;;;;92.50;28.83;;;;;;;;;;5010591;28;20041;-65
2021/12/04 15:58:20;;;;;;;119.93;38.05;;;;;;;;;;5008945;28;20456;-64
2021/12/04 16:00:52;;;;;;;82.70;28.02;;;;;;;;;;5011116;28;20073;-65
2021/12/04 16:03:19;;;;;;;102.18;33.20;;;;;;;;;;5011060;28;20081;-65
2021/12/04 16:05:51;;;;;;;98.38;32.88;;;5.70;99.90;;;;;;5011049;28;20050;-64
2021/12/04 16:08:20;;;;;;;398.92;258.10;;;5.70;99.90;;;;;;5007015;28;20049;-64
2021/12/04 16:10:50;;;;;;;125.97;46.33;;;;;;;;;;5013639;28;20079;-64
2021/12/04 16:13:27;;;;;;;131.35;60.63;;;5.50;99.90;;;;;;5010771;28;20084;-65
2021/12/04 16:15:53;;;;;;;97.40;33.55;;;;;;;;;;4986063;28;20034;-63
2021/12/04 16:18:20;;;;;;;126.28;35.38;;;;;;;;;;5013060;28;20120;-63
2021/12/04 16:20:46;;;;;;;88.60;29.63;;;;;;;;;;5009929;28;20556;-63
2021/12/04 16:23:14;;;;;;;98.90;31.50;;;5.60;99.90;;;;;;5014662;28;20034;-63
2021/12/04 16:25:41;;;;;;;88.00;31.33;;;5.70;99.90;;;;;;5004314;28;20038;-63
2021/12/04 16:31:29;;;;;;;92.07;29.65;;;;;;;;;;5004643;28;20053;-63
2021/12/04 16:36:37;;;;;;;107.97;35.80;;;;;;;;;;5005898;28;20045;-64
2021/12/04 16:39:06;;;;;;;110.68;33.05;;;;;;;;;;5012038;28;20045;-64
2021/12/04 16:41:32;;;;;;;105.63;38.70;;;;;;;;;;5008219;28;20057;-64
2021/12/04 16:43:57;;;;;;;100.22;31.48;;;5.70;99.90;;;;;;4995281;28;20042;-64
2021/12/04 16:46:28;;;;;;;89.78;30.75;;;;;;;;;;5007304;28;20061;-64
2021/12/04 16:48:58;;;;;;;71.35;24.92;;;5.50;99.90;;;;;;5007046;28;20069;-63
2021/12/04 16:59:34;;;;;;;86.82;37.97;;;5.60;99.90;;;;;;5006314;28;20504;-63
2021/12/04 17:02:01;;;;;;;73.93;32.45;;;;;;;;;;5004058;28;20414;-63
2021/12/04 17:04:28;;;;;;;74.60;31.35;;;;;;;;;;5007606;28;20034;-62
2021/12/04 17:06:56;;;;;;;68.07;28.48;;;;;;;;;;5003391;28;20030;-63
2021/12/04 17:09:23;;;;;;;76.85;28.98;;;;;;;;;;5004763;28;20038;-62
2021/12/04 17:11:54;;;;;;;69.28;23.48;;;;;;;;;;4987880;28;20041;-62
2021/12/04 17:14:20;;;;;;;64.57;24.00;;;5.50;99.90;;;;;;5004278;28;20056;-63
2021/12/04 17:16:46;;;;;;;64.20;24.42;;;;;;;;;;5007206;28;20048;-62